Wilson Lisbon — 5BNU3 — position and weather

sailwx.info

Track history (hours):
 
Tides and Currents Weather Stations Pressure Air Temp Water Temp Dewpoint Dewpoint Depression Visibility Wind Speed Wind Dir Waves Ship Positions

Wilson Lisbon

Last reported at 2014-Oct-31 18:33 UTC. Time now 2014-Oct-31 18:46 UTC.
Position N 51°52' E 003°20'.

Length 90 m; draft 5.3 m.

Type: Ship. MMSI: 212376000.

Date/timePositionNaut miles runAvg speedWind from/ knotsBaromVisibWave heightAir tempDewpointWater temp
2014-Oct-31 18:33N 51°52' E 003°20'9 9.5
2014-Oct-31 17:33N 51°43' E 003°17'10 9.5
2014-Oct-31 16:33N 51°35' E 003°24'9 8.7
2014-Oct-31 15:34N 51°27' E 003°31'8 8.3
2014-Oct-31 14:33N 51°23' E 003°43'5 5.2
2014-Oct-31 13:34N 51°20' E 003°49'6 6.0
2014-Oct-31 12:30N 51°13' E 003°48'0 0.0
2014-Oct-31 11:33N 51°13' E 003°48'0 0.0
2014-Oct-31 10:18N 51°13' E 003°48'0 0.0
2014-Oct-31 09:33N 51°13' E 003°48'0 0.0
2014-Oct-31 08:33N 51°13' E 003°48'0 0.0
2014-Oct-31 07:33N 51°13' E 003°48'0 0.0
2014-Oct-31 06:27N 51°13' E 003°48'0 0.0
2014-Oct-31 05:30N 51°13' E 003°48'0 0.0
2014-Oct-31 04:30N 51°13' E 003°48'0 0.0
2014-Oct-31 03:33N 51°13' E 003°48'0 0.0
2014-Oct-31 02:30N 51°13' E 003°48'0 0.0
2014-Oct-31 01:30N 51°13' E 003°48'0 0.0
2014-Oct-31 00:33N 51°13' E 003°48'0 0.0
2014-Oct-30 23:33N 51°13' E 003°48'0 0.0
2014-Oct-30 22:30N 51°13' E 003°48'0 0.0
2014-Oct-30 21:33N 51°13' E 003°48'0 0.0
2014-Oct-30 20:33N 51°13' E 003°48'0 0.0
2014-Oct-30 19:33N 51°13' E 003°48'0 0.0
2014-Oct-30 18:33N 51°13' E 003°48'0 0.0
2014-Oct-30 17:30N 51°13' E 003°48'0 0.0
2014-Oct-30 16:33N 51°13' E 003°48'0 0.0
2014-Oct-30 15:33N 51°13' E 003°48'0 0.0
2014-Oct-30 14:30N 51°13' E 003°48'0 0.0
2014-Oct-30 13:33N 51°13' E 003°48'0 0.0
2014-Oct-30 12:28N 51°13' E 003°48'0 0.0
2014-Oct-30 11:33N 51°13' E 003°48'0 0.0
2014-Oct-30 10:30N 51°13' E 003°48'0 0.0
2014-Oct-30 09:33N 51°13' E 003°48'0 0.0
2014-Oct-30 08:33N 51°13' E 003°48'0 0.0
2014-Oct-30 07:33N 51°13' E 003°48'0 0.0
2014-Oct-30 06:30N 51°13' E 003°48'0 0.0
2014-Oct-30 05:33N 51°13' E 003°48'0 0.0
2014-Oct-30 04:30N 51°13' E 003°48'1 0.8
2014-Oct-30 03:33N 51°14' E 003°49'6 5.8
2014-Oct-30 02:34N 51°20' E 003°49'2 1.6
2014-Oct-30 01:34N 51°21' E 003°51'8 8.1
2014-Oct-30 00:34N 51°25' E 004°02'8 7.6
2014-Oct-29 23:34N 51°23' E 004°13'8 8.4
2014-Oct-29 22:34N 51°15' E 004°19'7 7.0
2014-Oct-29 21:32N 51°08' E 004°20'3 2.6
2014-Oct-29 20:24N 51°05' E 004°21'1 0.1
2014-Oct-29 09:10N 51°05' E 004°22'0 0.0
2014-Oct-29 06:22N 51°05' E 004°22'0 0.0
2014-Oct-28 16:30N 51°05' E 004°22'3 2.0
2014-Oct-28 15:13N 51°06' E 004°19'1 2.0
2014-Oct-28 14:33N 51°08' E 004°19'7 7.0
2014-Oct-28 13:33N 51°14' E 004°21'9 9.1
2014-Oct-28 12:34N 51°22' E 004°13'8 7.5
2014-Oct-28 11:33N 51°24' E 004°02'7 6.6
2014-Oct-28 10:33N 51°21' E 003°53'8 7.7
2014-Oct-28 09:33N 51°24' E 003°42'8 7.8
2014-Oct-28 08:33N 51°28' E 003°31'8 8.4
2014-Oct-28 07:33N 51°35' E 003°23'9 8.6
2014-Oct-28 06:33N 51°43' E 003°16'7 6.7
2014-Oct-28 05:33N 51°49' E 003°15'7 7.5
2014-Oct-28 04:33N 51°56' E 003°18'7 6.8
2014-Oct-28 03:34N 52°03' E 003°21'6 6.4
2014-Oct-28 02:33N 52°09' E 003°22'6 6.3
2014-Oct-28 01:33N 52°16' E 003°23'6 6.0
2014-Oct-28 00:33N 52°21' E 003°26'6 6.2
2014-Oct-27 23:31N 52°28' E 003°27'6 6.2
2014-Oct-27 22:33N 52°33' E 003°29'6 5.4
2014-Oct-27 21:26N 52°39' E 003°34'18 6.1
2014-Oct-27 18:32N 52°53' E 003°52'6 5.9
2014-Oct-27 17:30N 52°57' E 003°59'  
2014-Oct-25 07:24N 58°09' E 005°10'36 6.7
2014-Oct-25 02:04N 58°45' E 005°14'3 6.5
2014-Oct-25 01:33N 58°48' E 005°15'6 6.3
2014-Oct-25 00:33N 58°54' E 005°16'8 7.5
2014-Oct-24 23:33N 59°02' E 005°19'8 7.6
2014-Oct-24 22:33N 59°09' E 005°20'9 8.6
2014-Oct-24 21:33N 59°18' E 005°20'10 9.7
2014-Oct-24 20:34N 59°27' E 005°13'  
Track history (hours):
 
Tides and Currents Weather Stations Pressure Air Temp Water Temp Dewpoint Dewpoint Depression Visibility Wind Speed Wind Dir Waves Ship Positions

Wilson Lisbon

Last reported at 2014-Oct-31 18:33 UTC. Time now 2014-Oct-31 18:46 UTC.
Position N 51°52' E 003°20'.

Length 90 m; draft 5.3 m.

Type: Ship. MMSI: 212376000.

Date/timePositionNaut miles runAvg speedWind from/ knotsBaromVisibWave heightAir tempDewpointWater temp
2014-Oct-31 18:33N 51°52' E 003°20'9 9.5
2014-Oct-31 17:33N 51°43' E 003°17'10 9.5
2014-Oct-31 16:33N 51°35' E 003°24'9 8.7
2014-Oct-31 15:34N 51°27' E 003°31'8 8.3
2014-Oct-31 14:33N 51°23' E 003°43'5 5.2
2014-Oct-31 13:34N 51°20' E 003°49'6 6.0
2014-Oct-31 12:30N 51°13' E 003°48'0 0.0
2014-Oct-31 11:33N 51°13' E 003°48'0 0.0
2014-Oct-31 10:18N 51°13' E 003°48'0 0.0
2014-Oct-31 09:33N 51°13' E 003°48'0 0.0
2014-Oct-31 08:33N 51°13' E 003°48'0 0.0
2014-Oct-31 07:33N 51°13' E 003°48'0 0.0
2014-Oct-31 06:27N 51°13' E 003°48'0 0.0
2014-Oct-31 05:30N 51°13' E 003°48'0 0.0
2014-Oct-31 04:30N 51°13' E 003°48'0 0.0
2014-Oct-31 03:33N 51°13' E 003°48'0 0.0
2014-Oct-31 02:30N 51°13' E 003°48'0 0.0
2014-Oct-31 01:30N 51°13' E 003°48'0 0.0
2014-Oct-31 00:33N 51°13' E 003°48'0 0.0
2014-Oct-30 23:33N 51°13' E 003°48'0 0.0
2014-Oct-30 22:30N 51°13' E 003°48'0 0.0
2014-Oct-30 21:33N 51°13' E 003°48'0 0.0
2014-Oct-30 20:33N 51°13' E 003°48'0 0.0
2014-Oct-30 19:33N 51°13' E 003°48'0 0.0
2014-Oct-30 18:33N 51°13' E 003°48'0 0.0
2014-Oct-30 17:30N 51°13' E 003°48'0 0.0
2014-Oct-30 16:33N 51°13' E 003°48'0 0.0
2014-Oct-30 15:33N 51°13' E 003°48'0 0.0
2014-Oct-30 14:30N 51°13' E 003°48'0 0.0
2014-Oct-30 13:33N 51°13' E 003°48'0 0.0
2014-Oct-30 12:28N 51°13' E 003°48'0 0.0
2014-Oct-30 11:33N 51°13' E 003°48'0 0.0
2014-Oct-30 10:30N 51°13' E 003°48'0 0.0
2014-Oct-30 09:33N 51°13' E 003°48'0 0.0
2014-Oct-30 08:33N 51°13' E 003°48'0 0.0
2014-Oct-30 07:33N 51°13' E 003°48'0 0.0
2014-Oct-30 06:30N 51°13' E 003°48'0 0.0
2014-Oct-30 05:33N 51°13' E 003°48'0 0.0
2014-Oct-30 04:30N 51°13' E 003°48'1 0.8
2014-Oct-30 03:33N 51°14' E 003°49'6 5.8
2014-Oct-30 02:34N 51°20' E 003°49'2 1.6
2014-Oct-30 01:34N 51°21' E 003°51'8 8.1
2014-Oct-30 00:34N 51°25' E 004°02'8 7.6
2014-Oct-29 23:34N 51°23' E 004°13'8 8.4
2014-Oct-29 22:34N 51°15' E 004°19'7 7.0
2014-Oct-29 21:32N 51°08' E 004°20'3 2.6
2014-Oct-29 20:24N 51°05' E 004°21'1 0.1
2014-Oct-29 09:10N 51°05' E 004°22'0 0.0
2014-Oct-29 06:22N 51°05' E 004°22'0 0.0
2014-Oct-28 16:30N 51°05' E 004°22'3 2.0
2014-Oct-28 15:13N 51°06' E 004°19'1 2.0
2014-Oct-28 14:33N 51°08' E 004°19'7 7.0
2014-Oct-28 13:33N 51°14' E 004°21'9 9.1
2014-Oct-28 12:34N 51°22' E 004°13'8 7.5
2014-Oct-28 11:33N 51°24' E 004°02'7 6.6
2014-Oct-28 10:33N 51°21' E 003°53'8 7.7
2014-Oct-28 09:33N 51°24' E 003°42'8 7.8
2014-Oct-28 08:33N 51°28' E 003°31'8 8.4
2014-Oct-28 07:33N 51°35' E 003°23'9 8.6
2014-Oct-28 06:33N 51°43' E 003°16'7 6.7
2014-Oct-28 05:33N 51°49' E 003°15'7 7.5
2014-Oct-28 04:33N 51°56' E 003°18'7 6.8
2014-Oct-28 03:34N 52°03' E 003°21'6 6.4
2014-Oct-28 02:33N 52°09' E 003°22'6 6.3
2014-Oct-28 01:33N 52°16' E 003°23'6 6.0
2014-Oct-28 00:33N 52°21' E 003°26'6 6.2
2014-Oct-27 23:31N 52°28' E 003°27'6 6.2
2014-Oct-27 22:33N 52°33' E 003°29'6 5.4
2014-Oct-27 21:26N 52°39' E 003°34'18 6.1
2014-Oct-27 18:32N 52°53' E 003°52'6 5.9
2014-Oct-27 17:30N 52°57' E 003°59'  
2014-Oct-25 07:24N 58°09' E 005°10'36 6.7
2014-Oct-25 02:04N 58°45' E 005°14'3 6.5
2014-Oct-25 01:33N 58°48' E 005°15'6 6.3
2014-Oct-25 00:33N 58°54' E 005°16'8 7.5
2014-Oct-24 23:33N 59°02' E 005°19'8 7.6
2014-Oct-24 22:33N 59°09' E 005°20'9 8.6
2014-Oct-24 21:33N 59°18' E 005°20'10 9.7
2014-Oct-24 20:34N 59°27' E 005°13'  

Dump ship's entire track history